Time;durP1;ratioP1;P1;durP2;ratioP2;P2;SDS_P1;SDS_P2;PMS_P1;PMS_P2;Temp;Humidity;BMP_temperature;BMP_pressure;BME280_temperature;BME280_humidity;BME280_pressure;Samples;Min_cycle;Max_cycle;Signal;HPM_P1;HPM_P2
2023/04/22 00:02:06;;;;;;;46.90;24.20;;;;;;;5.11;71.31;99850.29;217555;1258;221685;-79
2023/04/22 00:07:09;;;;;;;37.50;20.60;;;;;;;4.93;71.42;99849.05;219068;1256;139888;-81
2023/04/22 00:12:12;;;;;;;50.00;25.70;;;;;;;4.82;71.69;99846.77;219005;1256;150927;-74
2023/04/22 00:17:15;;;;;;;40.20;21.90;;;;;;;4.76;71.70;99843.31;217794;1260;140621;-71
2023/04/22 00:22:18;;;;;;;25.30;15.00;;;;;;;4.67;72.14;99839.48;220395;1256;141249;-76
2023/04/22 00:27:21;;;;;;;30.40;15.90;;;;;;;4.62;72.29;99831.52;220779;1255;140318;-75
2023/04/22 00:32:25;;;;;;;30.30;16.60;;;;;;;4.61;72.28;99828.22;218793;1256;140381;-76
2023/04/22 00:37:28;;;;;;;29.60;17.00;;;;;;;4.60;72.28;99823.75;218217;1256;140085;-74
2023/04/22 00:42:31;;;;;;;24.40;15.00;;;;;;;4.57;72.39;99820.90;217657;1256;139698;-76
2023/04/22 00:47:34;;;;;;;20.60;12.80;;;;;;;4.49;72.41;99817.10;218730;1256;140314;-81
2023/04/22 00:52:37;;;;;;;19.90;12.80;;;;;;;4.36;72.52;99815.59;218031;1256;140140;-79
2023/04/22 00:57:42;;;;;;;38.80;22.50;;;;;;;4.28;72.80;99816.47;218812;1257;139616;-75
2023/04/22 01:02:46;;;;;;;47.10;24.30;;;;;;;4.26;73.19;99821.38;217797;1256;139364;-72
2023/04/22 01:07:51;;;;;;;43.00;22.90;;;;;;;4.25;73.28;99818.49;218127;1256;140292;-71
2023/04/22 01:12:55;;;;;;;36.20;22.20;;;;;;;4.26;73.81;99818.73;217630;1260;140313;-74
2023/04/22 01:18:00;;;;;;;28.80;16.60;;;;;;;4.28;74.25;99825.38;217793;1256;140322;-74
2023/04/22 01:23:15;;;;;;;21.50;14.70;;;;;;;4.28;74.29;99824.34;218575;1256;139640;-71
2023/04/22 01:28:19;;;;;;;23.50;14.70;;;;;;;4.20;73.83;99822.83;216906;1257;1165059;-72
2023/04/22 01:33:24;;;;;;;28.30;16.30;;;;;;;4.06;73.66;99822.83;217890;1256;139643;-72
2023/04/22 01:38:27;;;;;;;22.50;13.50;;;;;;;3.93;73.98;99824.89;218866;1256;140198;-74
2023/04/22 01:43:31;;;;;;;17.90;14.20;;;;;;;3.85;74.25;99827.48;218025;1256;140351;-73
2023/04/22 01:48:36;;;;;;;26.90;16.50;;;;;;;3.79;74.35;99820.52;217574;1256;139956;-74
2023/04/22 01:53:39;;;;;;;23.60;14.90;;;;;;;3.77;74.48;99824.15;218488;1256;139853;-74
2023/04/22 01:58:43;;;;;;;29.40;16.80;;;;;;;3.69;74.53;99823.84;217583;1260;140191;-72
2023/04/22 02:03:46;;;;;;;23.90;16.50;;;;;;;3.69;74.99;99821.16;219911;1256;139369;-75
2023/04/22 02:08:49;;;;;;;20.10;14.30;;;;;;;3.67;74.76;99824.02;219976;1256;139671;-73
2023/04/22 02:13:52;;;;;;;22.40;17.10;;;;;;;3.62;74.68;99821.55;218817;1256;139931;-76
2023/04/22 02:18:54;;;;;;;31.60;17.00;;;;;;;3.62;75.00;99817.83;219610;1256;140089;-81
2023/04/22 02:23:57;;;;;;;23.90;15.10;;;;;;;3.58;74.97;99814.82;219147;1256;140989;-73
2023/04/22 02:29:01;;;;;;;28.00;18.30;;;;;;;3.52;75.03;99812.80;218853;1256;140021;-72
2023/04/22 02:34:04;;;;;;;24.10;16.80;;;;;;;3.50;75.45;99808.28;219649;1256;140149;-73
2023/04/22 02:39:07;;;;;;;21.80;15.40;;;;;;;3.51;75.37;99809.25;218695;1256;140538;-75
2023/04/22 02:44:11;;;;;;;21.00;15.40;;;;;;;3.46;75.27;99813.89;218748;1256;140220;-75
2023/04/22 02:49:14;;;;;;;28.60;16.50;;;;;;;3.40;75.11;99808.48;217863;1260;139671;-76
2023/04/22 02:54:18;;;;;;;27.10;16.90;;;;;;;3.36;75.54;99807.73;217950;1256;140205;-76
2023/04/22 02:59:21;;;;;;;24.80;15.70;;;;;;;3.33;75.55;99807.05;217779;1256;139508;-76
2023/04/22 03:04:26;;;;;;;23.40;14.40;;;;;;;3.29;75.69;99808.27;217634;1256;139695;-77
2023/04/22 03:09:32;;;;;;;22.40;16.20;;;;;;;3.21;75.62;99809.05;217697;1256;141465;-77
2023/04/22 03:14:35;;;;;;;23.30;14.00;;;;;;;3.17;75.76;99812.61;217784;1260;140355;-75
2023/04/22 03:19:38;;;;;;;27.50;16.90;;;;;;;3.14;75.87;99810.92;217800;1256;139297;-74
2023/04/22 03:24:43;;;;;;;24.70;15.60;;;;;;;3.11;76.07;99810.72;218433;1256;141040;-75
2023/04/22 03:29:46;;;;;;;21.70;17.10;;;;;;;3.10;76.00;99809.48;217953;1256;151066;-75
2023/04/22 03:34:48;;;;;;;19.70;14.60;;;;;;;3.07;75.94;99811.28;218231;1256;141178;-75
2023/04/22 03:39:52;;;;;;;23.90;16.10;;;;;;;3.05;76.29;99806.23;217962;1260;139373;-73
2023/04/22 03:44:56;;;;;;;18.70;13.60;;;;;;;3.05;76.32;99804.42;217925;1256;139757;-74
2023/04/22 03:49:59;;;;;;;21.40;18.30;;;;;;;3.11;76.30;99806.87;218122;1257;139624;-73
2023/04/22 03:55:04;;;;;;;18.50;13.20;;;;;;;3.38;76.16;99809.61;217659;1256;140163;-70
2023/04/22 04:00:09;;;;;;;16.60;13.20;;;;;;;3.88;75.95;99809.04;218618;1256;140937;-82
2023/04/22 04:05:12;;;;;;;18.50;14.70;;;;;;;4.25;75.48;99812.92;218104;1256;140838;-77
2023/04/22 04:10:16;;;;;;;20.50;13.40;;;;;;;4.31;75.40;99815.06;219160;1257;141075;-76
2023/04/22 04:15:20;;;;;;;18.70;14.50;;;;;;;4.26;75.04;99818.09;220588;1256;140229;-82
2023/04/22 04:20:23;;;;;;;16.60;11.80;;;;;;;4.18;75.19;99816.04;219730;1256;139879;-81
2023/04/22 04:25:29;;;;;;;18.80;12.50;;;;;;;4.15;75.24;99817.80;219512;1260;140373;-76
2023/04/22 04:30:33;;;;;;;19.10;14.60;;;;;;;4.14;75.46;99816.00;218684;1256;139924;-80
2023/04/22 04:35:37;;;;;;;34.50;21.40;;;;;;;4.22;75.78;99817.33;218590;1256;140238;-80
2023/04/22 04:40:44;;;;;;;45.70;23.90;;;;;;;4.34;75.92;99820.48;217809;1255;139550;-76
2023/04/22 04:45:48;;;;;;;66.20;33.20;;;;;;;4.52;76.20;99820.58;218752;1256;139984;-76
2023/04/22 04:50:53;;;;;;;64.90;33.40;;;;;;;4.73;76.43;99823.66;218414;1256;139368;-67
2023/04/22 04:55:56;;;;;;;49.40;26.10;;;;;;;4.95;76.79;99826.14;218094;1257;139587;-73
2023/04/22 05:00:58;;;;;;;43.00;26.50;;;;;;;5.11;76.68;99825.24;218872;1259;139423;-69
2023/04/22 05:06:03;;;;;;;45.10;27.30;;;;;;;5.32;77.00;99828.48;217832;1256;140058;-69
2023/04/22 05:11:06;;;;;;;45.00;30.00;;;;;;;5.56;77.18;99820.70;218267;1256;139505;-70
2023/04/22 05:16:10;;;;;;;40.90;30.10;;;;;;;5.78;77.16;99814.84;217987;1256;139894;-70
2023/04/22 05:21:15;;;;;;;50.10;29.60;;;;;;;6.02;77.37;99810.59;218395;1256;140007;-71
2023/04/22 05:26:19;;;;;;;44.70;28.80;;;;;;;6.27;77.35;99805.19;218275;1260;140106;-74
2023/04/22 05:31:22;;;;;;;46.30;26.80;;;;;;;6.82;77.66;99812.22;217796;1256;139837;-74
2023/04/22 05:36:30;;;;;;;38.20;21.40;;;;;;;7.62;76.84;99807.94;217970;1256;141074;-72
2023/04/22 05:41:33;;;;;;;24.80;19.60;;;;;;;8.32;76.13;99801.87;219840;1256;140168;-73
2023/04/22 05:46:37;;;;;;;37.40;25.80;;;;;;;8.57;75.62;99802.42;219054;1256;139925;-76
2023/04/22 05:51:41;;;;;;;34.70;23.50;;;;;;;9.02;74.98;99802.47;219240;1256;140250;-76
2023/04/22 05:56:45;;;;;;;31.50;21.60;;;;;;;9.44;74.46;99804.88;218693;1257;140064;-75
2023/04/22 06:01:49;;;;;;;27.40;18.70;;;;;;;9.72;74.18;99802.67;219018;1260;140802;-75
2023/04/22 06:06:53;;;;;;;27.70;19.50;;;;;;;9.95;73.50;99799.10;219240;1259;140572;-76
2023/04/22 06:11:58;;;;;;;29.80;22.30;;;;;;;10.21;73.23;99802.86;220485;1256;140907;-76
2023/04/22 06:17:01;;;;;;;24.80;18.40;;;;;;;10.46;73.23;99798.35;219788;1256;140849;-76
2023/04/22 06:22:04;;;;;;;24.10;15.20;;;;;;;10.69;72.92;99798.75;220050;1256;140005;-79
2023/04/22 06:27:06;;;;;;;17.20;11.60;;;;;;;10.92;72.56;99800.90;219998;1256;140565;-72
2023/04/22 06:32:09;;;;;;;18.50;13.30;;;;;;;11.15;71.73;99798.86;218420;1256;140675;-70
2023/04/22 06:37:13;;;;;;;16.90;11.80;;;;;;;11.43;71.69;99801.11;218623;1257;140122;-69
2023/04/22 06:42:16;;;;;;;15.50;9.90;;;;;;;12.11;71.00;99799.67;217635;1257;140997;-73
2023/04/22 06:47:19;;;;;;;14.70;9.20;;;;;;;13.25;69.73;99805.80;218926;1260;140458;-71
2023/04/22 06:52:24;;;;;;;12.30;9.60;;;;;;;15.07;67.85;99799.51;217920;1257;140662;-69
2023/04/22 06:57:28;;;;;;;11.30;8.10;;;;;;;17.19;65.60;99800.33;218322;1257;139692;-69
2023/04/22 07:02:32;;;;;;;8.90;7.10;;;;;;;18.56;62.82;99801.82;217937;1256;139496;-74
2023/04/22 07:07:35;;;;;;;7.50;6.40;;;;;;;19.56;60.01;99801.68;217854;1260;139701;-75
2023/04/22 07:12:38;;;;;;;11.30;8.60;;;;;;;20.07;57.83;99802.96;217565;1259;138497;-80
2023/04/22 07:17:41;;;;;;;6.30;5.70;;;;;;;19.84;55.39;99801.16;217620;1257;138780;-71
2023/04/22 07:22:44;;;;;;;6.10;5.50;;;;;;;19.71;54.10;99801.41;218105;1256;140529;-72
2023/04/22 07:27:47;;;;;;;9.40;6.70;;;;;;;19.99;54.10;99803.90;217745;1256;139076;-73
2023/04/22 07:32:51;;;;;;;8.50;5.80;;;;;;;20.44;53.14;99803.38;217534;1260;139512;-76
2023/04/22 07:37:54;;;;;;;9.50;6.10;;;;;;;20.86;52.96;99799.55;217704;1259;138531;-75
2023/04/22 07:42:58;;;;;;;7.40;5.90;;;;;;;21.24;51.55;99799.67;217571;1256;138930;-72
2023/04/22 07:48:01;;;;;;;6.90;5.20;;;;;;;21.42;50.39;99798.96;219142;1260;139266;-71
2023/04/22 07:53:04;;;;;;;5.50;4.90;;;;;;;21.49;48.91;99800.66;217409;1260;138950;-72
2023/04/22 07:58:08;;;;;;;16.30;5.10;;;;;;;21.45;47.63;99800.14;219186;1257;138836;-75
2023/04/22 08:03:10;;;;;;;8.50;4.80;;;;;;;21.59;47.34;99797.84;217594;1256;140622;-71
2023/04/22 08:08:14;;;;;;;5.60;4.60;;;;;;;21.62;46.08;99795.33;217668;1260;139604;-76
2023/04/22 08:13:17;;;;;;;5.30;4.40;;;;;;;21.60;45.25;99794.67;217584;1260;139499;-75
2023/04/22 08:18:19;;;;;;;4.20;3.90;;;;;;;21.59;43.76;99797.52;219077;1260;138992;-73
2023/04/22 08:23:22;;;;;;;4.40;4.00;;;;;;;21.57;43.22;99795.56;217419;1256;141228;-76
2023/04/22 08:28:25;;;;;;;3.20;2.80;;;;;;;21.63;41.82;99797.38;218888;1255;139268;-69
2023/04/22 08:33:27;;;;;;;4.80;4.20;;;;;;;21.64;40.82;99793.77;217939;1256;139383;-80
2023/04/22 08:38:29;;;;;;;5.00;3.80;;;;;;;21.62;40.22;99797.17;218073;1257;152066;-75
2023/04/22 08:43:32;;;;;;;5.00;4.30;;;;;;;21.62;40.33;99795.98;217435;1260;139025;-73
2023/04/22 08:48:36;;;;;;;4.80;3.50;;;;;;;21.65;40.68;99794.94;217391;1259;138915;-81
2023/04/22 08:53:38;;;;;;;9.70;3.90;;;;;;;21.75;40.79;99791.56;217420;1257;139346;-80
2023/04/22 08:58:41;;;;;;;3.70;3.30;;;;;;;21.79;40.09;99796.92;217535;1257;139278;-81
2023/04/22 09:03:44;;;;;;;4.90;4.50;;;;;;;21.83;39.79;99793.70;217711;1257;139681;-73
2023/04/22 09:08:47;;;;;;;4.00;3.40;;;;;;;21.64;39.27;99789.05;217683;1259;139658;-72
2023/04/22 09:13:50;;;;;;;4.60;4.10;;;;;;;21.59;39.06;99790.73;217623;1257;139462;-70
2023/04/22 09:18:52;;;;;;;4.00;3.70;;;;;;;21.78;39.77;99786.16;217733;1259;138720;-73
2023/04/22 09:23:55;;;;;;;6.00;3.60;;;;;;;22.05;40.26;99779.66;217623;1259;140411;-74
2023/04/22 09:28:59;;;;;;;5.60;3.90;;;;;;;22.23;39.73;99776.41;217432;1257;139765;-83
2023/04/22 09:34:04;;;;;;;3.70;3.40;;;;;;;22.23;39.88;99773.25;217429;1262;138465;-78
2023/04/22 09:39:07;;;;;;;7.20;4.30;;;;;;;22.36;39.10;99763.40;217455;1256;139791;-78
2023/04/22 09:44:15;;;;;;;5.10;4.50;;;;;;;22.41;38.62;99763.36;217390;1262;140441;-72
2023/04/22 09:49:20;;;;;;;4.60;4.10;;;;;;;22.33;38.02;99754.80;218487;1260;139268;-73
2023/04/22 09:54:22;;;;;;;4.30;3.90;;;;;;;22.43;38.82;99748.80;220137;1257;139148;-72
2023/04/22 09:59:29;;;;;;;5.70;4.10;;;;;;;22.62;38.77;99744.50;217449;1262;140753;-71
2023/04/22 10:04:32;;;;;;;3.90;3.40;;;;;;;22.80;38.43;99739.34;217289;1262;139974;-74
2023/04/22 10:09:35;;;;;;;3.70;3.40;;;;;;;22.82;37.75;99737.06;218638;1257;139674;-76
2023/04/22 10:14:39;;;;;;;4.40;3.90;;;;;;;22.86;37.86;99735.92;220161;1257;140386;-75
2023/04/22 10:19:45;;;;;;;5.70;4.00;;;;;;;22.90;37.54;99732.55;217769;1260;139199;-77
2023/04/22 10:24:54;;;;;;;3.00;2.80;;;;;;;22.91;36.25;99730.80;218167;1257;139749;-74
2023/04/22 10:29:58;;;;;;;6.00;4.90;;;;;;;22.90;36.53;99725.32;217517;1260;140012;-73
2023/04/22 10:35:11;;;;;;;5.20;4.60;;;;;;;22.75;36.43;99720.29;217586;1259;140438;-80
2023/04/22 10:40:16;;;;;;;5.60;5.10;;;;;;;22.68;36.78;99718.45;217551;1259;139857;-75
2023/04/22 10:45:24;;;;;;;10.80;6.40;;;;;;;22.76;36.84;99708.63;217544;1260;139703;-74
2023/04/22 10:50:30;;;;;;;6.00;5.40;;;;;;;22.84;36.85;99704.71;217967;1260;139009;-75
2023/04/22 10:55:52;;;;;;;7.10;6.40;;;;;;;22.82;36.83;99700.27;217812;1257;139969;-81
2023/04/22 11:00:58;;;;;;;11.30;7.30;;;;;;;22.74;36.13;99696.88;217921;1260;138839;-76
2023/04/22 11:06:16;;;;;;;6.60;5.50;;;;;;;22.75;36.27;99691.64;217551;1255;138506;-76
2023/04/22 11:11:20;;;;;;;5.00;4.60;;;;;;;22.59;35.90;99695.56;217650;1257;139360;-71
2023/04/22 11:16:23;;;;;;;5.90;5.30;;;;;;;22.53;35.60;99690.47;217617;1257;139805;-70
2023/04/22 11:21:26;;;;;;;5.90;5.30;;;;;;;22.56;35.61;99692.22;217628;1257;139695;-72
2023/04/22 11:26:34;;;;;;;8.80;6.00;;;;;;;22.01;35.30;99690.50;217645;1260;140145;-74
2023/04/22 11:31:36;;;;;;;7.50;5.50;;;;;;;21.97;36.48;99684.26;218501;1258;140021;-73
2023/04/22 11:36:44;;;;;;;8.10;5.60;;;;;;;22.17;36.36;99678.86;219611;1257;139648;-69
2023/04/22 11:41:47;;;;;;;5.00;4.50;;;;;;;22.26;36.40;99672.34;217761;1256;140098;-72
2023/04/22 11:46:50;;;;;;;6.70;4.70;;;;;;;22.36;36.28;99671.83;218162;1260;139401;-86
2023/04/22 11:51:55;;;;;;;7.70;5.20;;;;;;;22.43;36.02;99674.98;217279;1260;139614;-85
2023/04/22 11:57:02;;;;;;;12.10;5.60;;;;;;;22.45;36.26;99672.11;217705;1257;140206;-79
2023/04/22 12:02:09;;;;;;;8.30;4.80;;;;;;;22.60;36.14;99671.77;217657;1260;140242;-70
2023/04/22 12:07:14;;;;;;;9.30;5.30;;;;;;;22.61;35.59;99668.25;220684;1257;140988;-68
2023/04/22 12:12:17;;;;;;;5.70;4.90;;;;;;;22.52;35.01;99661.86;218286;1260;139917;-70
2023/04/22 12:17:23;;;;;;;5.80;5.20;;;;;;;22.50;35.57;99657.09;218623;1257;139105;-70
2023/04/22 12:22:28;;;;;;;4.90;4.50;;;;;;;22.65;35.49;99651.44;217566;1260;139169;-69
2023/04/22 12:27:32;;;;;;;;;;;;;;;22.56;34.77;99652.02;217709;1257;140786;-70
2023/04/22 12:32:35;;;;;;;8.70;5.40;;;;;;;22.54;34.98;99652.65;218123;1257;128031;-70
2023/04/22 12:37:39;;;;;;;4.20;3.60;;;;;;;22.70;34.82;99646.13;217638;1258;139845;-71
2023/04/22 12:42:42;;;;;;;4.10;3.80;;;;;;;22.68;34.17;99638.68;217668;1258;138862;-72
2023/04/22 12:47:46;;;;;;;4.60;4.20;;;;;;;22.45;34.05;99638.64;217649;1257;140500;-73
2023/04/22 12:52:48;;;;;;;7.40;5.40;;;;;;;22.49;33.98;99630.81;217585;1258;140086;-71
2023/04/22 12:57:51;;;;;;;8.40;3.40;;;;;;;22.26;34.42;99627.61;217597;1257;150574;-71
2023/04/22 13:02:53;;;;;;;5.00;4.50;;;;;;;21.76;33.87;99624.02;217625;1260;139949;-72
2023/04/22 13:07:55;;;;;;;5.30;4.40;;;;;;;21.62;34.27;99619.61;217568;1257;139182;-70
2023/04/22 13:13:08;;;;;;;4.90;4.40;;;;;;;21.78;33.71;99616.14;217864;1257;138709;-72
2023/04/22 13:18:22;;;;;;;4.30;3.90;;;;;;;21.82;34.08;99612.95;217510;1257;140191;-73
2023/04/22 13:23:24;;;;;;;4.40;3.80;;;;;;;21.91;33.82;99603.64;217593;1257;140054;-70
2023/04/22 13:28:27;;;;;;;6.60;4.40;;;;;;;22.07;33.45;99601.23;215001;1257;3410494;-69
2023/04/22 13:33:29;;;;;;;3.60;3.30;;;;;;;22.09;33.63;99597.30;217965;1256;139206;-76
2023/04/22 13:38:31;;;;;;;4.40;4.00;;;;;;;22.02;33.33;99594.14;217509;1257;139032;-80
2023/04/22 13:43:33;;;;;;;4.50;4.00;;;;;;;21.98;32.84;99590.77;217595;1257;139878;-74
2023/04/22 13:48:36;;;;;;;4.50;3.30;;;;;;;21.96;33.66;99590.66;217617;1257;138882;-70
2023/04/22 13:53:40;;;;;;;4.60;3.80;;;;;;;21.84;32.87;99585.81;219544;1257;139315;-69
2023/04/22 13:58:42;;;;;;;3.80;3.50;;;;;;;21.77;32.56;99583.55;219768;1257;139434;-69
2023/04/22 14:03:45;;;;;;;6.40;3.90;;;;;;;21.91;32.86;99579.34;218217;1257;139066;-71
2023/04/22 14:08:48;;;;;;;4.20;3.80;;;;;;;21.84;32.52;99582.17;220621;1256;140389;-71
2023/04/22 14:13:51;;;;;;;4.00;3.70;;;;;;;21.67;32.51;99580.80;217904;1257;139336;-72
2023/04/22 14:18:54;;;;;;;4.70;3.80;;;;;;;21.76;32.65;99571.31;218787;1257;139050;-82
2023/04/22 14:23:56;;;;;;;5.40;3.80;;;;;;;21.83;32.52;99569.65;217981;1257;139405;-78
2023/04/22 14:28:59;;;;;;;3.50;3.20;;;;;;;21.76;32.39;99566.91;217488;1257;139714;-75
2023/04/22 14:34:03;;;;;;;4.60;4.20;;;;;;;21.58;32.67;99557.70;217485;1257;138787;-71
2023/04/22 14:39:05;;;;;;;3.80;3.30;;;;;;;21.35;33.10;99556.63;217568;1257;139405;-66
2023/04/22 14:44:07;;;;;;;5.00;4.50;;;;;;;21.22;33.23;99553.47;217365;1259;140196;-70
2023/04/22 14:49:09;;;;;;;4.70;3.70;;;;;;;21.19;33.65;99554.81;217605;1256;138891;-69
2023/04/22 14:54:11;;;;;;;5.70;3.60;;;;;;;21.25;33.15;99547.34;217858;1256;140085;-71
2023/04/22 14:59:13;;;;;;;5.70;4.10;;;;;;;21.20;33.20;99543.85;217314;1257;141076;-69
2023/04/22 15:04:15;;;;;;;8.00;6.20;;;;;;;21.14;32.94;99539.86;217590;1257;140424;-66
2023/04/22 15:09:17;;;;;;;4.50;3.90;;;;;;;20.98;33.42;99537.29;217658;1255;139684;-68
2023/04/22 15:14:19;;;;;;;10.50;6.30;;;;;;;20.89;33.40;99533.61;217629;1257;139122;-66
2023/04/22 15:19:21;;;;;;;5.90;3.80;;;;;;;20.78;33.34;99536.21;217536;1257;138870;-71
2023/04/22 15:24:23;;;;;;;6.90;4.10;;;;;;;20.71;33.11;99539.41;218454;1256;139574;-67
2023/04/22 15:29:27;;;;;;;6.80;3.60;;;;;;;20.59;33.06;99533.59;217594;1259;139842;-67
2023/04/22 15:34:29;;;;;;;5.00;3.60;;;;;;;20.45;33.01;99534.77;217754;1257;139406;-66
2023/04/22 15:39:31;;;;;;;5.20;4.30;;;;;;;20.34;33.85;99530.94;217559;1257;139180;-73
2023/04/22 15:44:33;;;;;;;7.20;4.80;;;;;;;20.25;34.37;99530.70;217549;1257;138754;-69
2023/04/22 15:49:38;;;;;;;5.90;5.30;;;;;;;20.18;34.82;99525.55;217581;1257;139703;-70
2023/04/22 15:54:41;;;;;;;4.70;4.20;;;;;;;20.18;34.86;99521.63;217769;1259;138688;-75
2023/04/22 15:59:43;;;;;;;3.50;3.20;;;;;;;20.10;34.88;99521.27;217596;1260;139887;-73
2023/04/22 16:04:47;;;;;;;4.20;3.80;;;;;;;20.06;35.12;99521.51;217609;1257;139454;-73
2023/04/22 16:09:50;;;;;;;4.40;3.60;;;;;;;20.00;34.96;99519.58;219978;1256;139327;-76
2023/04/22 16:14:52;;;;;;;5.70;3.60;;;;;;;19.85;34.37;99514.14;218299;1258;139597;-73
2023/04/22 16:19:54;;;;;;;5.10;3.70;;;;;;;19.74;34.34;99516.05;217607;1260;138716;-74
2023/04/22 16:24:57;;;;;;;6.30;4.20;;;;;;;19.69;34.48;99513.91;217339;1256;140022;-73
2023/04/22 16:29:59;;;;;;;5.40;4.20;;;;;;;19.69;34.42;99512.84;217411;1259;139032;-75
2023/04/22 16:35:01;;;;;;;8.10;5.20;;;;;;;19.64;35.02;99510.11;217380;1257;140435;-73
2023/04/22 16:40:05;;;;;;;3.80;3.50;;;;;;;19.53;36.07;99513.99;217499;1257;140736;-74
2023/04/22 16:45:07;;;;;;;4.20;3.90;;;;;;;19.40;36.95;99511.45;217808;1256;139600;-73
2023/04/22 16:50:11;;;;;;;8.70;4.00;;;;;;;19.23;37.38;99505.38;217242;1260;140481;-73
2023/04/22 16:55:13;;;;;;;6.10;4.70;;;;;;;19.08;38.06;99502.52;217623;1257;138629;-75
2023/04/22 17:00:16;;;;;;;4.60;4.20;;;;;;;18.92;38.38;99497.98;217269;1257;142353;-73
2023/04/22 17:05:18;;;;;;;5.80;3.60;;;;;;;18.70;39.08;99499.45;218203;1257;140321;-74
2023/04/22 17:10:20;;;;;;;3.90;3.60;;;;;;;18.45;39.26;99500.95;217354;1257;139826;-73
2023/04/22 17:15:23;;;;;;;4.80;4.40;;;;;;;18.22;39.60;99503.70;217626;1257;138940;-71
2023/04/22 17:20:25;;;;;;;7.60;6.30;;;;;;;18.06;39.89;99506.42;217544;1257;139084;-71
2023/04/22 17:25:28;;;;;;;5.80;5.10;;;;;;;17.89;40.34;99503.95;217990;1257;139131;-70
2023/04/22 17:30:31;;;;;;;6.00;5.10;;;;;;;17.67;40.42;99506.77;218446;1256;140048;-71
2023/04/22 17:35:34;;;;;;;4.80;4.40;;;;;;;17.42;41.00;99500.94;217953;1259;139062;-76
2023/04/22 17:40:36;;;;;;;6.10;4.90;;;;;;;17.18;41.62;99506.23;217517;1255;139304;-76
2023/04/22 17:45:39;;;;;;;6.20;4.20;;;;;;;16.94;42.41;99503.81;217432;1260;139110;-71
2023/04/22 17:50:42;;;;;;;6.50;4.40;;;;;;;16.70;43.34;99504.16;217632;1257;151768;-71
2023/04/22 17:55:44;;;;;;;7.40;4.40;;;;;;;16.43;44.20;99510.55;220450;1256;141871;-72
2023/04/22 18:00:46;;;;;;;3.90;3.40;;;;;;;16.19;45.31;99519.67;219168;1257;140025;-73
2023/04/22 18:05:49;;;;;;;8.20;3.70;;;;;;;15.91;46.40;99522.70;217728;1257;139322;-74
2023/04/22 18:10:54;;;;;;;11.10;5.70;;;;;;;15.69;47.14;99527.29;218203;1256;140299;-72
2023/04/22 18:15:56;;;;;;;8.00;5.50;;;;;;;15.44;48.08;99526.40;218302;1257;139713;-74
2023/04/22 18:20:59;;;;;;;11.90;5.50;;;;;;;15.17;48.53;99529.12;217381;1257;139386;-74
2023/04/22 18:26:08;;;;;;;9.00;5.30;;;;;;;14.95;49.46;99527.67;218976;1256;140430;-72
2023/04/22 18:31:11;;;;;;;8.80;5.30;;;;;;;14.70;50.05;99528.63;218423;1257;139034;-76
2023/04/22 18:36:13;;;;;;;15.50;7.40;;;;;;;14.46;50.68;99533.67;217631;1257;139896;-74
2023/04/22 18:41:15;;;;;;;12.30;6.80;;;;;;;14.24;51.09;99533.91;217616;1257;141416;-80
2023/04/22 18:46:18;;;;;;;22.70;11.40;;;;;;;13.99;51.86;99537.99;217489;1257;140409;-79
2023/04/22 18:51:21;;;;;;;33.20;12.50;;;;;;;13.76;52.57;99535.20;217623;1256;140045;-77
2023/04/22 18:56:24;;;;;;;30.30;13.80;;;;;;;13.55;53.01;99533.42;217526;1257;139647;-80
2023/04/22 19:01:27;;;;;;;19.70;10.00;;;;;;;13.35;53.68;99540.92;217694;1259;140890;-75
2023/04/22 19:06:29;;;;;;;17.20;9.50;;;;;;;13.08;53.86;99537.04;217579;1257;141299;-76
2023/04/22 19:11:32;;;;;;;23.90;12.30;;;;;;;12.84;53.97;99533.09;217620;1260;139814;-70
2023/04/22 19:16:34;;;;;;;23.50;9.90;;;;;;;12.66;54.34;99536.94;218469;1256;140012;-80
2023/04/22 19:21:38;;;;;;;14.40;9.20;;;;;;;12.46;55.17;99533.48;217483;1257;140758;-74
2023/04/22 19:26:40;;;;;;;16.10;9.20;;;;;;;12.27;55.43;99535.69;217569;1256;139225;-78
2023/04/22 19:31:43;;;;;;;18.30;9.40;;;;;;;12.01;55.60;99535.91;217589;1259;140100;-73
2023/04/22 19:36:47;;;;;;;17.60;10.90;;;;;;;11.86;56.30;99536.86;217674;1257;139924;-77
2023/04/22 19:41:50;;;;;;;26.40;14.10;;;;;;;11.71;56.59;99534.33;217616;1256;140261;-81
2023/04/22 19:46:52;;;;;;;25.00;13.90;;;;;;;11.59;56.98;99529.35;217640;1257;140914;-77
2023/04/22 19:51:57;;;;;;;37.50;19.00;;;;;;;11.46;57.34;99527.26;219748;1256;140412;-71
2023/04/22 19:57:01;;;;;;;39.40;16.50;;;;;;;11.34;57.70;99523.55;218157;1259;140508;-68
2023/04/22 20:02:03;;;;;;;33.50;18.30;;;;;;;11.21;58.16;99523.19;217661;1257;139625;-69
2023/04/22 20:07:06;;;;;;;29.50;15.40;;;;;;;11.08;58.21;99522.84;219015;1256;139922;-69
2023/04/22 20:12:09;;;;;;;25.70;11.50;;;;;;;10.89;58.16;99521.47;218015;1256;139894;-69
2023/04/22 20:17:12;;;;;;;21.10;12.10;;;;;;;10.68;58.44;99518.55;218378;1257;139387;-69
2023/04/22 20:22:25;;;;;;;13.20;10.20;;;;;;;10.55;58.62;99516.84;218785;1256;139557;-72
2023/04/22 20:27:32;;;;;;;11.60;8.50;;;;;;;10.41;58.71;99513.65;217800;1259;139581;-68
2023/04/22 20:32:36;;;;;;;19.90;11.50;;;;;;;10.22;59.08;99510.40;217924;1257;139439;-75
2023/04/22 20:37:40;;;;;;;19.40;13.00;;;;;;;10.11;59.88;99515.29;217806;1260;140984;-69
2023/04/22 20:42:42;;;;;;;23.30;15.00;;;;;;;10.05;60.64;99512.90;217803;1257;139896;-74
2023/04/22 20:47:45;;;;;;;51.30;25.40;;;;;;;9.99;60.85;99514.84;218260;1259;139458;-71
2023/04/22 20:52:48;;;;;;;48.30;24.80;;;;;;;9.91;61.12;99513.02;218312;1256;140587;-69
2023/04/22 20:57:51;;;;;;;41.30;21.30;;;;;;;9.84;61.53;99512.17;218714;1256;139717;-70
2023/04/22 21:02:54;;;;;;;29.50;17.80;;;;;;;9.78;61.82;99511.23;218706;1256;140517;-69
2023/04/22 21:07:59;;;;;;;28.40;17.70;;;;;;;9.70;62.37;99504.10;219512;1256;140866;-69
2023/04/22 21:13:02;;;;;;;25.30;16.90;;;;;;;9.60;62.50;99502.97;218132;1256;140002;-72
2023/04/22 21:18:06;;;;;;;24.50;17.10;;;;;;;9.49;62.74;99499.21;218288;1257;139935;-67
2023/04/22 21:23:10;;;;;;;25.10;17.20;;;;;;;9.41;63.15;99502.45;217868;1257;140398;-72
2023/04/22 21:28:12;;;;;;;26.90;18.70;;;;;;;9.32;63.40;99498.80;220333;1256;141086;-73
2023/04/22 21:33:15;;;;;;;33.70;19.10;;;;;;;9.26;63.78;99504.23;217873;1256;139835;-74
2023/04/22 21:38:18;;;;;;;21.00;15.50;;;;;;;9.19;63.97;99507.33;217541;1257;141984;-70
2023/04/22 21:43:20;;;;;;;29.40;19.10;;;;;;;9.08;64.14;99505.77;220366;1256;140205;-74
2023/04/22 21:48:23;;;;;;;20.90;16.10;;;;;;;9.04;64.59;99509.39;219250;1256;221395;-70
2023/04/22 21:53:25;;;;;;;26.70;18.10;;;;;;;9.04;64.84;99509.42;217532;1259;140329;-69
2023/04/22 21:58:29;;;;;;;20.00;14.00;;;;;;;9.03;65.12;99512.27;217534;1260;140327;-72
2023/04/22 22:03:31;;;;;;;15.40;12.30;;;;;;;8.97;65.04;99507.91;218567;1259;140882;-77
2023/04/22 22:08:34;;;;;;;14.10;11.00;;;;;;;8.91;65.12;99506.98;217569;1257;140947;-70
2023/04/22 22:13:37;;;;;;;17.10;10.80;;;;;;;8.90;65.17;99507.64;218641;1257;139844;-71
2023/04/22 22:18:47;;;;;;;14.40;11.00;;;;;;;8.93;65.14;99506.29;218659;1256;140291;-71
2023/04/22 22:23:51;;;;;;;14.80;10.50;;;;;;;8.95;65.04;99503.68;217763;1260;140910;-71
2023/04/22 22:28:55;;;;;;;14.20;10.60;;;;;;;8.95;65.11;99504.58;217789;1257;140964;-71
2023/04/22 22:33:59;;;;;;;12.70;8.20;;;;;;;8.90;65.15;99504.45;218208;1257;141128;-69
2023/04/22 22:39:04;;;;;;;16.40;9.90;;;;;;;8.89;64.85;99505.13;217931;1257;140564;-75
2023/04/22 22:44:07;;;;;;;21.90;7.80;;;;;;;8.89;64.67;99503.36;218707;1256;140226;-78
2023/04/22 22:49:11;;;;;;;13.00;8.80;;;;;;;8.90;64.31;99501.38;217738;1257;140502;-75
2023/04/22 22:54:14;;;;;;;12.40;9.00;;;;;;;8.95;64.03;99497.67;217521;1257;140441;-72
2023/04/22 22:59:19;;;;;;;12.50;8.40;;;;;;;9.00;63.56;99497.84;218032;1257;139973;-75
2023/04/22 23:04:22;;;;;;;15.40;8.10;;;;;;;9.06;63.48;99502.13;217720;1256;140371;-75